createdAt,value
2019-03-13T00:01:12.081Z,63.28
2019-03-13T00:03:43.343Z,63.05
2019-03-13T00:06:13.879Z,63.32
2019-03-13T00:08:44.439Z,63.15
2019-03-13T00:11:14.779Z,62.96
2019-03-13T00:13:45.137Z,62.85
2019-03-13T00:16:15.638Z,62.64
2019-03-13T00:18:45.983Z,62.56
2019-03-13T00:21:16.422Z,62.46
2019-03-13T00:23:46.961Z,62.70
2019-03-13T00:26:17.501Z,62.62
2019-03-13T00:28:47.849Z,62.37
2019-03-13T00:31:18.283Z,62.22
2019-03-13T00:33:48.630Z,62.72
2019-03-13T00:36:19.267Z,62.71
2019-03-13T00:38:51.076Z,62.67
2019-03-13T00:41:21.611Z,62.64
2019-03-13T00:43:52.159Z,62.72
2019-03-13T00:46:22.601Z,62.79
2019-03-13T00:48:52.945Z,62.84
2019-03-13T00:51:23.284Z,62.93
2019-03-13T00:53:53.682Z,63.02
2019-03-13T00:56:23.982Z,63.28
2019-03-13T00:58:54.425Z,63.41
2019-03-13T01:01:26.342Z,63.43
2019-03-13T01:04:04.497Z,63.63
2019-03-13T01:06:36.481Z,63.68
2019-03-13T01:09:07.392Z,64.03
2019-03-13T01:11:37.661Z,63.65
2019-03-13T01:14:08.006Z,63.87
2019-03-13T01:16:38.276Z,63.46
2019-03-13T01:19:08.725Z,63.39
2019-03-13T01:21:39.064Z,63.44
2019-03-13T01:24:09.336Z,63.49
2019-03-13T01:26:39.678Z,63.66
2019-03-13T01:29:09.947Z,63.25
2019-03-13T01:31:56.877Z,62.89
2019-03-13T01:34:31.787Z,62.97
2019-03-13T01:37:02.052Z,62.70
2019-03-13T01:39:32.393Z,62.89
2019-03-13T01:42:02.666Z,62.48
2019-03-13T01:44:33.116Z,62.41
2019-03-13T01:47:03.390Z,62.50
2019-03-13T01:49:33.664Z,62.35
2019-03-13T01:52:04.000Z,62.33
2019-03-13T01:54:34.273Z,62.21
2019-03-13T01:57:04.536Z,62.27
2019-03-13T01:59:34.806Z,62.13
2019-03-13T02:02:05.079Z,62.27
2019-03-13T02:04:35.415Z,61.79
2019-03-13T02:07:05.750Z,62.31
2019-03-13T02:09:36.028Z,61.74
2019-03-13T02:12:07.278Z,61.66
2019-03-13T02:14:37.553Z,61.32
2019-03-13T02:17:07.821Z,61.19
2019-03-13T02:19:38.092Z,61.20
2019-03-13T02:22:08.535Z,61.32
2019-03-13T02:24:39.079Z,61.42
2019-03-13T02:27:09.410Z,60.96
2019-03-13T02:29:39.755Z,61.11
2019-03-13T02:32:11.177Z,60.96
2019-03-13T02:34:41.529Z,61.20
2019-03-13T02:37:11.790Z,60.88
2019-03-13T02:39:42.333Z,61.02
2019-03-13T02:42:12.856Z,61.02
2019-03-13T02:44:43.112Z,61.32
2019-03-13T02:47:13.652Z,61.00
2019-03-13T02:49:43.922Z,60.74
2019-03-13T02:52:14.190Z,60.67
2019-03-13T02:54:44.462Z,60.84
2019-03-13T02:57:14.802Z,60.80
2019-03-13T02:59:45.132Z,61.09
2019-03-13T03:02:17.049Z,61.07
2019-03-13T03:04:48.171Z,60.86
2019-03-13T03:07:18.445Z,60.84
2019-03-13T03:09:48.709Z,60.69
2019-03-13T03:12:19.141Z,60.85
2019-03-13T03:15:03.073Z,60.66
2019-03-13T03:17:33.802Z,60.55
2019-03-13T03:20:06.907Z,60.14
2019-03-13T03:22:37.165Z,59.75
2019-03-13T03:25:10.337Z,60.01
2019-03-13T03:27:40.667Z,59.82
2019-03-13T03:30:22.457Z,59.53
2019-03-13T03:32:52.841Z,59.66
2019-03-13T03:35:23.145Z,59.79
2019-03-13T03:37:53.392Z,59.68
2019-03-13T03:40:23.863Z,59.68
2019-03-13T03:42:54.376Z,59.75
2019-03-13T03:45:24.669Z,60.07
2019-03-13T03:47:54.904Z,59.75
2019-03-13T03:50:25.151Z,59.83
2019-03-13T03:52:55.462Z,59.95
2019-03-13T03:55:25.711Z,60.10
2019-03-13T03:57:55.945Z,59.97
2019-03-13T04:00:26.195Z,59.85
2019-03-13T04:02:56.501Z,59.83
2019-03-13T04:05:27.673Z,59.35
2019-03-13T04:07:57.893Z,59.30
2019-03-13T04:10:28.129Z,58.89
2019-03-13T04:12:58.365Z,58.85
2019-03-13T04:15:28.776Z,59.15
2019-03-13T04:17:59.284Z,59.31
2019-03-13T04:20:29.537Z,58.58
2019-03-13T04:22:59.765Z,58.64
2019-03-13T04:25:30.770Z,59.03
2019-03-13T04:28:01.078Z,58.55
2019-03-13T04:30:31.404Z,58.02
2019-03-13T04:33:02.885Z,57.61
2019-03-13T04:35:33.149Z,57.78
2019-03-13T04:38:03.382Z,57.71
2019-03-13T04:40:33.805Z,58.09
2019-03-13T04:43:04.109Z,58.25
2019-03-13T04:45:34.434Z,57.66
2019-03-13T04:48:05.044Z,58.33
2019-03-13T04:50:35.372Z,58.46
2019-03-13T04:53:05.609Z,58.95
2019-03-13T04:55:36.036Z,60.36
2019-03-13T04:58:06.286Z,60.28
2019-03-13T05:00:36.615Z,61.00
2019-03-13T05:03:08.347Z,61.95
2019-03-13T05:05:43.828Z,62.73
2019-03-13T05:08:20.555Z,63.35
2019-03-13T05:10:50.801Z,63.68
2019-03-13T05:13:21.093Z,64.08
2019-03-13T05:15:52.288Z,64.54
2019-03-13T05:18:22.912Z,64.66
2019-03-13T05:20:54.331Z,65.47
2019-03-13T05:23:24.647Z,65.30
2019-03-13T05:25:54.968Z,65.23
2019-03-13T05:28:25.214Z,65.65
2019-03-13T05:30:55.724Z,65.66
2019-03-13T05:33:25.966Z,65.98
2019-03-13T05:35:56.217Z,66.45
2019-03-13T05:38:26.477Z,66.92
2019-03-13T05:40:57.064Z,67.78
2019-03-13T05:43:27.381Z,67.67
2019-03-13T05:45:57.695Z,69.37
2019-03-13T05:48:28.204Z,70.29
2019-03-13T05:50:58.522Z,70.61
2019-03-13T05:53:29.103Z,71.05
2019-03-13T05:55:59.349Z,71.68
2019-03-13T05:58:29.593Z,72.54
2019-03-13T06:00:59.897Z,73.78
2019-03-13T06:03:30.227Z,73.99
2019-03-13T06:06:01.599Z,74.80
2019-03-13T06:08:33.085Z,75.44
2019-03-13T06:11:03.616Z,75.19
2019-03-13T06:13:33.957Z,75.97
2019-03-13T06:16:04.266Z,76.18
2019-03-13T06:18:34.559Z,76.71
2019-03-13T06:21:05.007Z,76.88
2019-03-13T06:23:35.323Z,76.91
2019-03-13T06:26:05.644Z,76.97
2019-03-13T06:28:35.876Z,77.52
2019-03-13T06:31:06.180Z,77.47
2019-03-13T06:33:37.492Z,77.47
2019-03-13T06:36:08.007Z,77.53
2019-03-13T06:38:38.323Z,77.73
2019-03-13T06:41:08.661Z,78.00
2019-03-13T06:43:38.886Z,77.82
2019-03-13T06:46:09.126Z,77.29
2019-03-13T06:48:39.370Z,77.08
2019-03-13T06:51:09.681Z,77.08
2019-03-13T06:53:40.006Z,76.80
2019-03-13T06:56:10.336Z,76.75
2019-03-13T06:58:45.124Z,76.45
2019-03-13T07:01:22.899Z,76.65
2019-03-13T07:04:09.822Z,77.03
2019-03-13T07:06:48.737Z,77.34
2019-03-13T07:09:20.695Z,77.06
2019-03-13T07:11:52.585Z,77.26
2019-03-13T07:14:24.479Z,77.38
2019-03-13T07:16:56.372Z,76.64
2019-03-13T07:19:31.327Z,76.15
2019-03-13T07:22:19.230Z,76.00
2019-03-13T07:24:53.867Z,75.95
2019-03-13T07:27:28.521Z,75.25
2019-03-13T07:30:00.491Z,75.56
2019-03-13T07:32:35.574Z,75.56
2019-03-13T07:35:14.548Z,75.47
2019-03-13T07:37:53.877Z,75.18
2019-03-13T07:40:28.670Z,75.19
2019-03-13T07:43:09.364Z,75.17
2019-03-13T07:45:41.325Z,74.80
2019-03-13T07:48:13.281Z,74.62
2019-03-13T07:50:51.222Z,73.52
2019-03-13T07:53:32.039Z,73.11
2019-03-13T07:56:03.999Z,72.35
2019-03-13T07:58:54.081Z,70.66
2019-03-13T08:01:37.922Z,61.41
2019-03-13T08:04:09.886Z,58.35
2019-03-13T08:06:44.613Z,52.05
2019-03-13T08:09:16.568Z,57.67
2019-03-13T08:11:54.298Z,60.55
2019-03-13T08:14:44.180Z,62.51
2019-03-13T08:17:16.353Z,61.39
2019-03-13T08:19:50.989Z,61.38
2019-03-13T08:22:28.602Z,63.19
2019-03-13T08:25:00.559Z,64.59
2019-03-13T08:27:35.592Z,65.15
2019-03-13T08:30:20.515Z,64.01
2019-03-13T08:32:52.668Z,64.91
2019-03-13T08:35:39.819Z,65.11
2019-03-13T08:38:28.228Z,60.28
2019-03-13T08:41:03.110Z,60.21
2019-03-13T08:43:47.281Z,51.17
2019-03-13T08:46:19.240Z,53.02
2019-03-13T08:48:51.191Z,54.23
2019-03-13T08:51:29.936Z,56.54
2019-03-13T08:54:36.061Z,58.01
2019-03-13T08:57:09.451Z,57.63
2019-03-13T08:59:41.441Z,57.27
2019-03-13T09:02:16.251Z,55.10
2019-03-13T09:04:48.225Z,53.92
2019-03-13T09:07:22.965Z,52.82
2019-03-13T09:10:11.342Z,52.13
2019-03-13T09:12:45.900Z,51.99
2019-03-13T09:15:17.864Z,51.45
2019-03-13T09:17:49.747Z,51.00
2019-03-13T09:20:30.886Z,49.64
2019-03-13T09:23:05.527Z,49.91
2019-03-13T09:25:37.502Z,47.70
2019-03-13T09:28:15.105Z,47.59
2019-03-13T09:31:03.101Z,46.85
2019-03-13T09:33:52.932Z,47.27
2019-03-13T09:36:24.880Z,48.38
2019-03-13T09:39:02.486Z,48.46
2019-03-13T09:41:48.135Z,48.95
2019-03-13T09:44:33.016Z,49.75
2019-03-13T09:47:16.878Z,49.55
2019-03-13T09:49:54.938Z,50.14
2019-03-13T09:52:43.280Z,51.22
2019-03-13T09:55:15.243Z,50.14
2019-03-13T09:57:47.122Z,50.89
2019-03-13T10:00:35.108Z,51.23
2019-03-13T10:03:18.821Z,52.08
2019-03-13T10:05:50.781Z,50.27
2019-03-13T10:08:31.415Z,49.42
2019-03-13T10:11:06.062Z,49.57
2019-03-13T10:13:38.409Z,48.57
2019-03-13T10:16:13.337Z,47.22
2019-03-13T10:18:58.161Z,46.97
2019-03-13T10:21:48.311Z,47.11
2019-03-13T10:24:20.483Z,46.69
2019-03-13T10:26:52.828Z,45.38
2019-03-13T10:29:27.587Z,44.69
2019-03-13T10:32:15.773Z,45.27
2019-03-13T10:34:53.618Z,45.84
2019-03-13T10:37:34.703Z,46.22
2019-03-13T10:40:25.994Z,46.73
2019-03-13T10:42:58.032Z,45.06
2019-03-13T10:45:30.000Z,45.97
2019-03-13T10:48:04.654Z,45.59
2019-03-13T10:50:36.880Z,46.81
2019-03-13T10:53:25.228Z,47.03
2019-03-13T10:56:13.299Z,46.71
2019-03-13T10:58:45.269Z,45.94
2019-03-13T11:01:19.921Z,45.51
2019-03-13T11:04:03.821Z,45.40
2019-03-13T11:06:54.097Z,46.00
2019-03-13T11:09:18.491Z,45.99
2019-03-13T11:12:02.178Z,46.73
2019-03-13T11:14:40.860Z,46.21
2019-03-13T11:17:21.968Z,46.43
2019-03-13T11:19:53.880Z,45.46
2019-03-13T11:22:26.036Z,45.79
2019-03-13T11:25:10.055Z,46.23
2019-03-13T11:27:42.015Z,46.61
2019-03-13T11:30:16.146Z,45.79
2019-03-13T11:32:48.096Z,46.06
2019-03-13T11:35:19.993Z,46.74
2019-03-13T11:37:55.036Z,46.08
2019-03-13T11:40:27.943Z,45.12
2019-03-13T11:43:09.345Z,45.24
2019-03-13T11:45:56.131Z,44.58
2019-03-13T11:48:33.846Z,44.91
2019-03-13T11:51:23.702Z,44.36
2019-03-13T11:54:01.573Z,43.52
2019-03-13T11:56:36.136Z,43.25
2019-03-13T11:59:25.843Z,42.61
2019-03-13T12:01:57.728Z,41.88
2019-03-13T12:04:29.698Z,42.01
2019-03-13T12:07:13.963Z,40.93
2019-03-13T12:10:03.850Z,40.40
2019-03-13T12:12:44.582Z,39.61
2019-03-13T12:15:22.486Z,39.58
2019-03-13T12:17:57.318Z,40.55
2019-03-13T12:20:29.372Z,40.87
2019-03-13T12:23:07.462Z,40.72
2019-03-13T12:25:39.357Z,40.14
2019-03-13T12:28:29.007Z,40.90
2019-03-13T12:31:03.950Z,40.74
2019-03-13T12:33:42.033Z,41.78
2019-03-13T12:36:31.711Z,41.52
2019-03-13T12:39:09.632Z,42.93
2019-03-13T12:41:50.930Z,43.72
2019-03-13T12:44:25.511Z,43.68
2019-03-13T12:47:06.206Z,43.72
2019-03-13T12:49:41.096Z,43.61
2019-03-13T12:52:13.069Z,43.14
2019-03-13T12:54:47.721Z,42.86
2019-03-13T12:57:23.565Z,42.54
2019-03-13T12:59:55.549Z,40.75
2019-03-13T13:02:37.416Z,40.96
2019-03-13T13:05:17.052Z,41.83
2019-03-13T13:07:51.896Z,42.44
2019-03-13T13:10:23.984Z,41.88
2019-03-13T13:13:01.860Z,42.66
2019-03-13T13:15:34.032Z,43.06
2019-03-13T13:18:05.989Z,42.72
2019-03-13T13:20:37.512Z,41.12
2019-03-13T13:23:08.066Z,40.40
2019-03-13T13:25:38.428Z,40.66
2019-03-13T13:28:08.754Z,40.86
2019-03-13T13:30:39.268Z,40.72
2019-03-13T13:33:09.841Z,40.67
2019-03-13T13:35:40.111Z,40.81
2019-03-13T13:38:10.584Z,40.20
2019-03-13T13:40:42.199Z,39.49
2019-03-13T13:43:12.562Z,39.65
2019-03-13T13:45:45.561Z,38.60
2019-03-13T13:48:15.888Z,38.66
2019-03-13T13:50:46.140Z,39.31
2019-03-13T13:53:16.774Z,39.81
2019-03-13T13:55:47.223Z,39.87
2019-03-13T13:58:17.580Z,39.21
2019-03-13T14:00:49.024Z,39.37
2019-03-13T14:03:19.453Z,38.64
2019-03-13T14:05:51.183Z,38.75
2019-03-13T14:08:21.445Z,39.20
2019-03-13T14:10:51.704Z,38.74
2019-03-13T14:13:22.041Z,39.82
2019-03-13T14:15:54.005Z,40.25
2019-03-13T14:18:24.274Z,40.77
2019-03-13T14:20:55.244Z,40.20
2019-03-13T14:23:26.831Z,39.83
2019-03-13T14:25:59.155Z,39.12
2019-03-13T14:28:31.480Z,38.72
2019-03-13T14:31:05.075Z,38.48
2019-03-13T14:33:36.870Z,38.73
2019-03-13T14:36:09.550Z,38.97
2019-03-13T14:38:40.974Z,39.63
2019-03-13T14:41:11.972Z,40.23
2019-03-13T14:43:42.496Z,40.10
2019-03-13T14:46:12.860Z,40.04
2019-03-13T14:48:45.983Z,40.36
2019-03-13T14:51:18.436Z,39.62
2019-03-13T14:53:48.917Z,40.50
2019-03-13T14:56:19.655Z,40.54
2019-03-13T14:58:50.287Z,41.07
2019-03-13T15:01:24.259Z,41.25
2019-03-13T15:03:56.239Z,40.91
2019-03-13T15:06:26.692Z,41.16
2019-03-13T15:08:58.420Z,41.22
2019-03-13T15:11:30.758Z,41.76
2019-03-13T15:14:02.416Z,41.44
2019-03-13T15:16:32.751Z,41.55
2019-03-13T15:19:03.306Z,41.16
2019-03-13T15:21:33.807Z,41.28
2019-03-13T15:24:04.349Z,41.19
2019-03-13T15:26:35.167Z,41.47
2019-03-13T15:29:06.771Z,41.48
2019-03-13T15:31:37.186Z,41.80
2019-03-13T15:34:09.662Z,42.40
2019-03-13T15:36:41.558Z,41.86
2019-03-13T15:39:11.909Z,42.15
2019-03-13T15:41:42.800Z,42.50
2019-03-13T15:44:13.182Z,41.96
2019-03-13T15:46:44.630Z,42.49
2019-03-13T15:49:16.375Z,42.99
2019-03-13T15:51:48.555Z,43.26
2019-03-13T15:54:19.039Z,43.32
2019-03-13T15:56:49.526Z,43.55
2019-03-13T15:59:20.167Z,43.73
2019-03-13T16:01:50.557Z,43.92
2019-03-13T16:04:22.666Z,43.85
2019-03-13T16:06:53.183Z,43.57
2019-03-13T16:09:23.720Z,43.34
2019-03-13T16:11:54.325Z,43.92
2019-03-13T16:14:24.913Z,44.78
2019-03-13T16:16:55.485Z,44.84
2019-03-13T16:19:30.658Z,44.69
2019-03-13T16:22:04.993Z,44.83
2019-03-13T16:24:37.082Z,45.46
2019-03-13T16:27:07.606Z,45.87
2019-03-13T16:29:38.202Z,45.67
2019-03-13T16:32:12.666Z,45.93
2019-03-13T16:34:43.402Z,45.77
2019-03-13T16:37:14.040Z,46.30
2019-03-13T16:39:45.710Z,46.54
2019-03-13T16:42:18.396Z,46.62
2019-03-13T16:44:49.859Z,47.02
2019-03-13T16:47:20.391Z,47.81
2019-03-13T16:49:52.746Z,48.24
2019-03-13T16:52:24.208Z,48.53
2019-03-13T16:54:54.795Z,47.92
2019-03-13T16:57:25.295Z,47.67
2019-03-13T17:00:00.460Z,47.04
2019-03-13T17:02:29.100Z,47.11
2019-03-13T17:05:00.836Z,47.25
2019-03-13T17:07:32.620Z,47.08
2019-03-13T17:10:03.141Z,47.01
2019-03-13T17:12:33.668Z,46.79
2019-03-13T17:15:11.656Z,47.15
2019-03-13T17:17:43.672Z,47.04
2019-03-13T17:20:43.242Z,47.31
2019-03-13T17:23:15.973Z,47.27
2019-03-13T17:25:47.778Z,47.30
2019-03-13T17:28:21.815Z,47.84
2019-03-13T17:30:52.560Z,48.75
2019-03-13T17:33:23.149Z,48.39
2019-03-13T17:35:54.520Z,48.52
2019-03-13T17:38:25.206Z,48.51
2019-03-13T17:40:55.585Z,47.95
2019-03-13T17:43:38.539Z,48.03
2019-03-13T17:45:58.216Z,48.65
2019-03-13T17:48:30.643Z,48.30
2019-03-13T17:51:03.082Z,48.49
2019-03-13T17:53:35.802Z,48.78
2019-03-13T17:56:08.158Z,48.51
2019-03-13T17:58:40.511Z,49.01
2019-03-13T18:01:13.139Z,49.11
2019-03-13T18:03:43.716Z,49.19
2019-03-13T18:06:15.586Z,49.79
2019-03-13T18:08:46.181Z,49.32
2019-03-13T18:11:17.851Z,49.47
2019-03-13T18:13:49.974Z,49.48
2019-03-13T18:16:22.059Z,49.19
2019-03-13T18:18:52.632Z,49.50
2019-03-13T18:21:23.190Z,49.79
2019-03-13T18:23:54.599Z,49.78
2019-03-13T18:26:27.164Z,50.49
2019-03-13T18:28:59.797Z,50.59
2019-03-13T18:31:30.172Z,50.35
2019-03-13T18:34:02.711Z,50.06
2019-03-13T18:36:39.819Z,50.26
2019-03-13T18:39:11.279Z,50.58
2019-03-13T18:41:43.915Z,50.50
2019-03-13T18:44:15.428Z,50.72
2019-03-13T18:46:47.388Z,50.54
2019-03-13T18:49:19.139Z,50.50
2019-03-13T18:51:52.750Z,51.04
2019-03-13T18:54:25.997Z,50.73
2019-03-13T18:56:56.493Z,51.29
2019-03-13T18:59:31.058Z,50.51
2019-03-13T19:02:01.442Z,50.37
2019-03-13T19:04:33.572Z,50.87
2019-03-13T19:07:04.144Z,50.19
2019-03-13T19:09:34.516Z,50.44
2019-03-13T19:12:05.025Z,50.31
2019-03-13T19:14:36.204Z,49.94
2019-03-13T19:17:06.699Z,50.16
2019-03-13T19:19:38.184Z,50.41
2019-03-13T19:22:09.608Z,50.41
2019-03-13T19:24:50.511Z,50.30
2019-03-13T19:27:21.097Z,50.58
2019-03-13T19:29:51.619Z,51.03
2019-03-13T19:32:22.238Z,50.25
2019-03-13T19:34:52.717Z,50.94
2019-03-13T19:37:27.948Z,50.61
2019-03-13T19:39:57.757Z,50.82
2019-03-13T19:42:29.551Z,50.75
2019-03-13T19:45:01.793Z,50.73
2019-03-13T19:47:32.739Z,50.78
2019-03-13T19:50:03.311Z,50.58
2019-03-13T19:52:36.030Z,50.47
2019-03-13T19:55:12.093Z,50.03
2019-03-13T19:57:44.370Z,50.09
2019-03-13T20:00:26.454Z,50.14
2019-03-13T20:03:02.424Z,50.07
2019-03-13T20:05:44.873Z,50.68
2019-03-13T20:08:13.657Z,50.25
2019-03-13T20:10:43.133Z,49.99
2019-03-13T20:13:16.519Z,49.86
2019-03-13T20:15:48.600Z,50.03
2019-03-13T20:18:19.080Z,49.71
2019-03-13T20:20:52.104Z,49.46
2019-03-13T20:23:22.530Z,49.79
2019-03-13T20:25:53.110Z,49.83
2019-03-13T20:28:23.938Z,49.52
2019-03-13T20:30:54.286Z,49.61
2019-03-13T20:33:25.901Z,49.63
2019-03-13T20:35:56.419Z,50.32
2019-03-13T20:38:27.877Z,49.23
2019-03-13T20:40:58.437Z,49.13
2019-03-13T20:43:29.241Z,49.37
2019-03-13T20:45:59.771Z,49.14
2019-03-13T20:48:30.316Z,49.31
2019-03-13T20:51:00.828Z,49.12
2019-03-13T20:53:32.972Z,49.54
2019-03-13T20:56:03.462Z,49.26
2019-03-13T20:58:37.796Z,49.23
2019-03-13T21:01:16.818Z,49.06
2019-03-13T21:03:47.335Z,49.81
2019-03-13T21:06:17.880Z,49.45
2019-03-13T21:08:54.319Z,49.56
2019-03-13T21:11:24.413Z,49.21
2019-03-13T21:13:54.934Z,49.71
2019-03-13T21:16:25.484Z,49.65
2019-03-13T21:18:56.049Z,49.82
2019-03-13T21:21:26.534Z,50.19
2019-03-13T21:23:57.058Z,49.95
2019-03-13T21:26:27.620Z,50.15
2019-03-13T21:28:58.413Z,50.52
2019-03-13T21:31:28.675Z,50.62
2019-03-13T21:33:59.468Z,50.34
2019-03-13T21:36:30.951Z,50.50
2019-03-13T21:39:01.479Z,50.30
2019-03-13T21:41:36.012Z,50.29
2019-03-13T21:44:07.460Z,50.54
2019-03-13T21:46:37.985Z,50.00
2019-03-13T21:49:08.769Z,50.10
2019-03-13T21:51:39.345Z,49.60
2019-03-13T21:54:09.880Z,50.21
2019-03-13T21:56:40.442Z,50.24
2019-03-13T21:59:12.161Z,50.26
2019-03-13T22:01:43.615Z,50.01
2019-03-13T22:04:23.682Z,50.65
2019-03-13T22:06:47.423Z,50.17
2019-03-13T22:09:19.481Z,49.88
2019-03-13T22:11:50.340Z,49.73
2019-03-13T22:14:20.852Z,49.73
2019-03-13T22:16:53.248Z,50.00
2019-03-13T22:19:24.669Z,50.48
2019-03-13T22:21:55.214Z,50.10
2019-03-13T22:24:26.658Z,49.85
2019-03-13T22:26:58.117Z,50.15
2019-03-13T22:29:29.548Z,50.25
2019-03-13T22:32:01.649Z,49.72
2019-03-13T22:34:32.187Z,49.79
2019-03-13T22:37:03.923Z,50.12
2019-03-13T22:39:34.441Z,50.18
2019-03-13T22:42:04.965Z,50.01
2019-03-13T22:44:35.509Z,49.67
2019-03-13T22:47:08.225Z,50.19
2019-03-13T22:49:38.708Z,49.97
2019-03-13T22:52:09.285Z,49.90
2019-03-13T22:54:39.795Z,50.37
2019-03-13T22:57:12.166Z,50.56
2019-03-13T22:59:42.703Z,50.74
2019-03-13T23:02:13.227Z,50.42
2019-03-13T23:04:43.735Z,50.97
2019-03-13T23:07:14.285Z,50.66
2019-03-13T23:09:44.787Z,50.79
2019-03-13T23:12:15.327Z,50.91
2019-03-13T23:14:46.772Z,50.98
2019-03-13T23:17:18.239Z,51.12
2019-03-13T23:19:49.667Z,51.36
2019-03-13T23:22:19.926Z,51.15
2019-03-13T23:24:51.361Z,51.42
2019-03-13T23:27:21.898Z,51.12
2019-03-13T23:29:52.409Z,51.43
2019-03-13T23:32:23.870Z,51.44
2019-03-13T23:34:54.386Z,51.78
2019-03-13T23:37:25.839Z,52.09
2019-03-13T23:39:56.366Z,52.36
2019-03-13T23:42:27.847Z,52.46
2019-03-13T23:44:59.265Z,52.42
2019-03-13T23:47:29.801Z,52.86
2019-03-13T23:50:00.483Z,52.52
2019-03-13T23:52:32.403Z,52.89
2019-03-13T23:55:02.922Z,52.96
2019-03-13T23:57:33.450Z,52.80
